sensor_id;sensor_type;location;lat;lon;timestamp;P1;durP1;ratioP1;P2;durP2;ratioP2
36851;SDS011;22784;52.476;13.424;2022-09-09T00:03:02;10.00;;;8.95;;
36851;SDS011;22784;52.476;13.424;2022-09-09T00:07:15;9.80;;;8.63;;
36851;SDS011;22784;52.476;13.424;2022-09-09T00:11:28;10.40;;;9.50;;
36851;SDS011;22784;52.476;13.424;2022-09-09T00:15:41;11.40;;;8.95;;
36851;SDS011;22784;52.476;13.424;2022-09-09T00:19:58;10.45;;;9.43;;
36851;SDS011;22784;52.476;13.424;2022-09-09T00:24:11;8.73;;;7.97;;
36851;SDS011;22784;52.476;13.424;2022-09-09T00:28:27;9.03;;;8.13;;
36851;SDS011;22784;52.476;13.424;2022-09-09T00:32:34;9.50;;;8.60;;
36851;SDS011;22784;52.476;13.424;2022-09-09T00:36:39;9.63;;;8.50;;
36851;SDS011;22784;52.476;13.424;2022-09-09T00:40:48;10.32;;;9.20;;
36851;SDS011;22784;52.476;13.424;2022-09-09T00:49:04;10.13;;;8.55;;
36851;SDS011;22784;52.476;13.424;2022-09-09T00:53:21;8.93;;;8.02;;
36851;SDS011;22784;52.476;13.424;2022-09-09T00:57:39;10.23;;;7.95;;
36851;SDS011;22784;52.476;13.424;2022-09-09T01:01:46;10.02;;;8.32;;
36851;SDS011;22784;52.476;13.424;2022-09-09T01:05:53;9.02;;;8.07;;
36851;SDS011;22784;52.476;13.424;2022-09-09T01:10:05;12.23;;;8.93;;
36851;SDS011;22784;52.476;13.424;2022-09-09T01:14:27;10.40;;;8.70;;
36851;SDS011;22784;52.476;13.424;2022-09-09T01:18:40;9.98;;;8.98;;
36851;SDS011;22784;52.476;13.424;2022-09-09T01:22:52;8.85;;;7.90;;
36851;SDS011;22784;52.476;13.424;2022-09-09T01:27:13;8.40;;;7.13;;
36851;SDS011;22784;52.476;13.424;2022-09-09T01:31:19;11.35;;;8.57;;
36851;SDS011;22784;52.476;13.424;2022-09-09T01:35:29;9.57;;;7.85;;
36851;SDS011;22784;52.476;13.424;2022-09-09T01:39:42;8.05;;;7.25;;
36851;SDS011;22784;52.476;13.424;2022-09-09T01:43:53;7.65;;;6.85;;
36851;SDS011;22784;52.476;13.424;2022-09-09T01:48:00;7.93;;;7.13;;
36851;SDS011;22784;52.476;13.424;2022-09-09T01:52:15;7.80;;;7.10;;
36851;SDS011;22784;52.476;13.424;2022-09-09T01:56:22;8.52;;;7.18;;
36851;SDS011;22784;52.476;13.424;2022-09-09T02:00:39;8.18;;;6.97;;
36851;SDS011;22784;52.476;13.424;2022-09-09T02:04:49;7.80;;;7.10;;
36851;SDS011;22784;52.476;13.424;2022-09-09T02:08:59;9.85;;;7.90;;
36851;SDS011;22784;52.476;13.424;2022-09-09T02:13:08;12.05;;;8.27;;
36851;SDS011;22784;52.476;13.424;2022-09-09T02:17:17;8.48;;;7.43;;
36851;SDS011;22784;52.476;13.424;2022-09-09T02:21:37;8.88;;;7.35;;
36851;SDS011;22784;52.476;13.424;2022-09-09T02:25:40;8.13;;;7.32;;
36851;SDS011;22784;52.476;13.424;2022-09-09T02:29:53;7.87;;;7.07;;
36851;SDS011;22784;52.476;13.424;2022-09-09T02:34:14;16.80;;;7.63;;
36851;SDS011;22784;52.476;13.424;2022-09-09T02:38:22;8.07;;;7.28;;
36851;SDS011;22784;52.476;13.424;2022-09-09T02:42:40;10.32;;;7.57;;
36851;SDS011;22784;52.476;13.424;2022-09-09T02:46:53;7.88;;;6.93;;
36851;SDS011;22784;52.476;13.424;2022-09-09T02:51:09;7.90;;;6.72;;
36851;SDS011;22784;52.476;13.424;2022-09-09T02:55:21;9.40;;;6.55;;
36851;SDS011;22784;52.476;13.424;2022-09-09T02:59:34;7.38;;;6.68;;
36851;SDS011;22784;52.476;13.424;2022-09-09T03:03:38;7.53;;;6.78;;
36851;SDS011;22784;52.476;13.424;2022-09-09T03:07:51;6.82;;;6.22;;
36851;SDS011;22784;52.476;13.424;2022-09-09T03:11:55;11.02;;;6.97;;
36851;SDS011;22784;52.476;13.424;2022-09-09T03:16:01;9.23;;;6.47;;
36851;SDS011;22784;52.476;13.424;2022-09-09T03:20:09;9.45;;;6.25;;
36851;SDS011;22784;52.476;13.424;2022-09-09T03:24:16;7.45;;;6.75;;
36851;SDS011;22784;52.476;13.424;2022-09-09T03:28:20;6.80;;;6.22;;
36851;SDS011;22784;52.476;13.424;2022-09-09T03:32:25;7.20;;;6.50;;
36851;SDS011;22784;52.476;13.424;2022-09-09T03:36:31;6.55;;;5.90;;
36851;SDS011;22784;52.476;13.424;2022-09-09T03:40:38;8.20;;;6.35;;
36851;SDS011;22784;52.476;13.424;2022-09-09T03:44:42;6.63;;;5.93;;
36851;SDS011;22784;52.476;13.424;2022-09-09T03:48:51;6.22;;;5.63;;
36851;SDS011;22784;52.476;13.424;2022-09-09T03:52:55;5.78;;;5.20;;
36851;SDS011;22784;52.476;13.424;2022-09-09T03:57:01;6.50;;;5.68;;
36851;SDS011;22784;52.476;13.424;2022-09-09T04:01:06;6.45;;;5.85;;
36851;SDS011;22784;52.476;13.424;2022-09-09T04:05:13;7.57;;;6.78;;
36851;SDS011;22784;52.476;13.424;2022-09-09T04:09:20;6.63;;;5.95;;
36851;SDS011;22784;52.476;13.424;2022-09-09T04:13:28;6.45;;;5.38;;
36851;SDS011;22784;52.476;13.424;2022-09-09T04:17:32;6.80;;;5.88;;
36851;SDS011;22784;52.476;13.424;2022-09-09T04:21:36;8.18;;;6.35;;
36851;SDS011;22784;52.476;13.424;2022-09-09T04:25:43;9.20;;;6.30;;
36851;SDS011;22784;52.476;13.424;2022-09-09T04:29:51;7.05;;;6.28;;
36851;SDS011;22784;52.476;13.424;2022-09-09T04:33:58;10.10;;;6.50;;
36851;SDS011;22784;52.476;13.424;2022-09-09T04:38:05;7.78;;;6.10;;
36851;SDS011;22784;52.476;13.424;2022-09-09T04:42:10;6.72;;;6.10;;
36851;SDS011;22784;52.476;13.424;2022-09-09T04:46:20;6.78;;;6.07;;
36851;SDS011;22784;52.476;13.424;2022-09-09T04:50:30;7.07;;;6.38;;
36851;SDS011;22784;52.476;13.424;2022-09-09T04:54:34;6.13;;;4.80;;
36851;SDS011;22784;52.476;13.424;2022-09-09T04:58:39;6.15;;;5.60;;
36851;SDS011;22784;52.476;13.424;2022-09-09T05:02:48;7.00;;;5.50;;
36851;SDS011;22784;52.476;13.424;2022-09-09T05:07:06;6.68;;;5.43;;
36851;SDS011;22784;52.476;13.424;2022-09-09T05:11:14;5.60;;;5.10;;
36851;SDS011;22784;52.476;13.424;2022-09-09T05:19:26;7.65;;;5.60;;
36851;SDS011;22784;52.476;13.424;2022-09-09T05:23:34;7.50;;;5.40;;
36851;SDS011;22784;52.476;13.424;2022-09-09T05:27:38;6.88;;;5.50;;
36851;SDS011;22784;52.476;13.424;2022-09-09T05:31:42;6.82;;;4.95;;
36851;SDS011;22784;52.476;13.424;2022-09-09T05:35:54;7.53;;;5.13;;
36851;SDS011;22784;52.476;13.424;2022-09-09T05:40:01;6.20;;;5.05;;
36851;SDS011;22784;52.476;13.424;2022-09-09T05:44:05;5.53;;;4.55;;
36851;SDS011;22784;52.476;13.424;2022-09-09T05:48:12;9.20;;;4.75;;
36851;SDS011;22784;52.476;13.424;2022-09-09T05:52:16;6.00;;;4.68;;
36851;SDS011;22784;52.476;13.424;2022-09-09T05:56:24;7.15;;;4.55;;
36851;SDS011;22784;52.476;13.424;2022-09-09T06:00:30;4.80;;;4.38;;
36851;SDS011;22784;52.476;13.424;2022-09-09T06:04:34;3.88;;;3.58;;
36851;SDS011;22784;52.476;13.424;2022-09-09T06:08:39;7.28;;;4.13;;
36851;SDS011;22784;52.476;13.424;2022-09-09T06:12:47;7.65;;;3.97;;
36851;SDS011;22784;52.476;13.424;2022-09-09T06:16:51;5.03;;;3.33;;
36851;SDS011;22784;52.476;13.424;2022-09-09T06:20:58;5.18;;;3.42;;
36851;SDS011;22784;52.476;13.424;2022-09-09T06:25:05;8.43;;;3.55;;
36851;SDS011;22784;52.476;13.424;2022-09-09T06:29:15;6.95;;;5.07;;
36851;SDS011;22784;52.476;13.424;2022-09-09T06:33:20;5.03;;;2.90;;
36851;SDS011;22784;52.476;13.424;2022-09-09T06:37:24;4.50;;;3.30;;
36851;SDS011;22784;52.476;13.424;2022-09-09T06:41:29;4.25;;;3.10;;
36851;SDS011;22784;52.476;13.424;2022-09-09T06:45:39;5.35;;;3.72;;
36851;SDS011;22784;52.476;13.424;2022-09-09T06:49:43;10.05;;;3.58;;
36851;SDS011;22784;52.476;13.424;2022-09-09T06:53:47;4.05;;;3.25;;
36851;SDS011;22784;52.476;13.424;2022-09-09T06:57:53;10.68;;;5.20;;
36851;SDS011;22784;52.476;13.424;2022-09-09T07:02:00;4.18;;;3.67;;
36851;SDS011;22784;52.476;13.424;2022-09-09T07:06:05;8.77;;;3.33;;
36851;SDS011;22784;52.476;13.424;2022-09-09T07:10:10;5.70;;;3.22;;
36851;SDS011;22784;52.476;13.424;2022-09-09T07:14:14;5.13;;;3.25;;
36851;SDS011;22784;52.476;13.424;2022-09-09T07:18:24;3.00;;;2.78;;
36851;SDS011;22784;52.476;13.424;2022-09-09T07:22:28;4.45;;;3.33;;
36851;SDS011;22784;52.476;13.424;2022-09-09T07:26:33;4.22;;;2.90;;
36851;SDS011;22784;52.476;13.424;2022-09-09T07:30:37;5.10;;;3.35;;
36851;SDS011;22784;52.476;13.424;2022-09-09T07:34:44;5.57;;;2.65;;
36851;SDS011;22784;52.476;13.424;2022-09-09T07:38:48;6.78;;;4.47;;
36851;SDS011;22784;52.476;13.424;2022-09-09T07:42:54;7.22;;;3.30;;
36851;SDS011;22784;52.476;13.424;2022-09-09T07:46:57;3.75;;;2.53;;
36851;SDS011;22784;52.476;13.424;2022-09-09T07:51:11;5.35;;;3.08;;
36851;SDS011;22784;52.476;13.424;2022-09-09T07:55:18;4.75;;;2.60;;
36851;SDS011;22784;52.476;13.424;2022-09-09T07:59:21;7.20;;;3.25;;
36851;SDS011;22784;52.476;13.424;2022-09-09T08:03:27;5.43;;;3.03;;
36851;SDS011;22784;52.476;13.424;2022-09-09T08:07:33;7.88;;;3.05;;
36851;SDS011;22784;52.476;13.424;2022-09-09T08:11:37;6.38;;;2.83;;
36851;SDS011;22784;52.476;13.424;2022-09-09T08:15:43;2.70;;;2.20;;
36851;SDS011;22784;52.476;13.424;2022-09-09T08:19:47;4.15;;;2.53;;
36851;SDS011;22784;52.476;13.424;2022-09-09T08:23:59;6.13;;;2.90;;
36851;SDS011;22784;52.476;13.424;2022-09-09T08:28:06;4.50;;;2.40;;
36851;SDS011;22784;52.476;13.424;2022-09-09T08:32:10;4.55;;;3.05;;
36851;SDS011;22784;52.476;13.424;2022-09-09T08:36:14;2.78;;;2.20;;
36851;SDS011;22784;52.476;13.424;2022-09-09T08:40:25;3.35;;;2.33;;
36851;SDS011;22784;52.476;13.424;2022-09-09T08:44:39;5.18;;;2.85;;
36851;SDS011;22784;52.476;13.424;2022-09-09T08:48:55;3.78;;;2.30;;
36851;SDS011;22784;52.476;13.424;2022-09-09T08:53:06;6.10;;;2.63;;
36851;SDS011;22784;52.476;13.424;2022-09-09T08:57:25;5.40;;;2.40;;
36851;SDS011;22784;52.476;13.424;2022-09-09T09:01:46;6.07;;;2.30;;
36851;SDS011;22784;52.476;13.424;2022-09-09T09:06:13;2.70;;;2.28;;
36851;SDS011;22784;52.476;13.424;2022-09-09T09:10:31;4.85;;;2.53;;
36851;SDS011;22784;52.476;13.424;2022-09-09T09:14:56;3.08;;;2.30;;
36851;SDS011;22784;52.476;13.424;2022-09-09T09:19:02;5.38;;;2.53;;
36851;SDS011;22784;52.476;13.424;2022-09-09T09:23:09;6.03;;;2.88;;
36851;SDS011;22784;52.476;13.424;2022-09-09T09:27:21;6.32;;;2.95;;
36851;SDS011;22784;52.476;13.424;2022-09-09T09:31:36;4.25;;;2.88;;
36851;SDS011;22784;52.476;13.424;2022-09-09T09:35:40;3.58;;;2.28;;
36851;SDS011;22784;52.476;13.424;2022-09-09T09:39:45;4.25;;;2.20;;
36851;SDS011;22784;52.476;13.424;2022-09-09T09:43:53;5.40;;;2.60;;
36851;SDS011;22784;52.476;13.424;2022-09-09T09:48:08;2.10;;;1.90;;
36851;SDS011;22784;52.476;13.424;2022-09-09T09:52:14;4.55;;;2.50;;
36851;SDS011;22784;52.476;13.424;2022-09-09T09:56:27;4.18;;;2.58;;
36851;SDS011;22784;52.476;13.424;2022-09-09T10:00:33;4.47;;;2.15;;
36851;SDS011;22784;52.476;13.424;2022-09-09T10:04:45;6.50;;;2.40;;
36851;SDS011;22784;52.476;13.424;2022-09-09T10:08:50;4.78;;;2.10;;
36851;SDS011;22784;52.476;13.424;2022-09-09T10:12:55;2.38;;;1.70;;
36851;SDS011;22784;52.476;13.424;2022-09-09T10:17:12;5.93;;;2.47;;
36851;SDS011;22784;52.476;13.424;2022-09-09T10:21:34;4.30;;;2.00;;
36851;SDS011;22784;52.476;13.424;2022-09-09T10:25:56;4.63;;;1.90;;
36851;SDS011;22784;52.476;13.424;2022-09-09T10:30:21;2.95;;;2.10;;
36851;SDS011;22784;52.476;13.424;2022-09-09T10:34:36;3.22;;;2.10;;
36851;SDS011;22784;52.476;13.424;2022-09-09T10:38:57;5.60;;;2.20;;
36851;SDS011;22784;52.476;13.424;2022-09-09T10:43:08;4.70;;;2.10;;
36851;SDS011;22784;52.476;13.424;2022-09-09T10:52:00;4.75;;;2.10;;
36851;SDS011;22784;52.476;13.424;2022-09-09T10:56:15;4.78;;;2.22;;
36851;SDS011;22784;52.476;13.424;2022-09-09T11:00:21;3.72;;;1.70;;
36851;SDS011;22784;52.476;13.424;2022-09-09T11:04:29;3.03;;;1.90;;
36851;SDS011;22784;52.476;13.424;2022-09-09T11:08:38;3.03;;;1.80;;
36851;SDS011;22784;52.476;13.424;2022-09-09T11:12:45;3.83;;;2.45;;
36851;SDS011;22784;52.476;13.424;2022-09-09T11:16:53;4.10;;;1.60;;
36851;SDS011;22784;52.476;13.424;2022-09-09T11:21:01;6.10;;;2.10;;
36851;SDS011;22784;52.476;13.424;2022-09-09T11:25:19;2.72;;;1.23;;
36851;SDS011;22784;52.476;13.424;2022-09-09T11:29:41;3.35;;;1.58;;
36851;SDS011;22784;52.476;13.424;2022-09-09T11:33:55;4.13;;;1.48;;
36851;SDS011;22784;52.476;13.424;2022-09-09T11:38:21;2.15;;;1.20;;
36851;SDS011;22784;52.476;13.424;2022-09-09T11:42:29;2.53;;;1.60;;
36851;SDS011;22784;52.476;13.424;2022-09-09T11:46:36;3.35;;;1.10;;
36851;SDS011;22784;52.476;13.424;2022-09-09T11:50:42;1.63;;;1.48;;
36851;SDS011;22784;52.476;13.424;2022-09-09T11:54:46;3.03;;;1.80;;
36851;SDS011;22784;52.476;13.424;2022-09-09T11:58:56;6.38;;;1.50;;
36851;SDS011;22784;52.476;13.424;2022-09-09T12:03:08;1.92;;;1.13;;
36851;SDS011;22784;52.476;13.424;2022-09-09T12:07:38;2.45;;;1.40;;
36851;SDS011;22784;52.476;13.424;2022-09-09T12:11:45;2.65;;;1.35;;
36851;SDS011;22784;52.476;13.424;2022-09-09T12:15:51;3.40;;;1.63;;
36851;SDS011;22784;52.476;13.424;2022-09-09T12:20:02;2.13;;;1.40;;
36851;SDS011;22784;52.476;13.424;2022-09-09T12:24:15;3.42;;;1.90;;
36851;SDS011;22784;52.476;13.424;2022-09-09T12:28:31;2.60;;;1.20;;
36851;SDS011;22784;52.476;13.424;2022-09-09T12:32:58;4.47;;;1.20;;
36851;SDS011;22784;52.476;13.424;2022-09-09T12:37:08;3.47;;;1.20;;
36851;SDS011;22784;52.476;13.424;2022-09-09T12:41:18;3.35;;;1.52;;
36851;SDS011;22784;52.476;13.424;2022-09-09T12:45:24;3.20;;;1.20;;
36851;SDS011;22784;52.476;13.424;2022-09-09T12:49:31;2.17;;;1.40;;
36851;SDS011;22784;52.476;13.424;2022-09-09T12:53:41;1.63;;;1.30;;
36851;SDS011;22784;52.476;13.424;2022-09-09T12:57:45;2.47;;;1.30;;
36851;SDS011;22784;52.476;13.424;2022-09-09T13:01:54;2.53;;;1.60;;
36851;SDS011;22784;52.476;13.424;2022-09-09T13:06:10;2.40;;;1.13;;
36851;SDS011;22784;52.476;13.424;2022-09-09T13:10:19;4.65;;;1.23;;
36851;SDS011;22784;52.476;13.424;2022-09-09T13:14:28;1.60;;;1.20;;
36851;SDS011;22784;52.476;13.424;2022-09-09T13:18:40;4.75;;;1.85;;
36851;SDS011;22784;52.476;13.424;2022-09-09T13:22:44;1.80;;;1.40;;
36851;SDS011;22784;52.476;13.424;2022-09-09T13:26:57;4.57;;;1.25;;
36851;SDS011;22784;52.476;13.424;2022-09-09T13:31:03;3.03;;;1.70;;
36851;SDS011;22784;52.476;13.424;2022-09-09T13:35:22;1.73;;;1.60;;
36851;SDS011;22784;52.476;13.424;2022-09-09T13:39:27;1.65;;;1.20;;
36851;SDS011;22784;52.476;13.424;2022-09-09T13:43:34;3.17;;;1.23;;
36851;SDS011;22784;52.476;13.424;2022-09-09T13:47:41;3.30;;;1.70;;
36851;SDS011;22784;52.476;13.424;2022-09-09T13:51:46;3.25;;;1.65;;
36851;SDS011;22784;52.476;13.424;2022-09-09T13:55:52;3.38;;;1.60;;
36851;SDS011;22784;52.476;13.424;2022-09-09T13:59:59;4.28;;;1.00;;
36851;SDS011;22784;52.476;13.424;2022-09-09T14:04:04;1.95;;;1.63;;
36851;SDS011;22784;52.476;13.424;2022-09-09T14:08:09;1.60;;;1.10;;
36851;SDS011;22784;52.476;13.424;2022-09-09T14:12:26;1.25;;;1.10;;
36851;SDS011;22784;52.476;13.424;2022-09-09T14:16:33;2.67;;;1.67;;
36851;SDS011;22784;52.476;13.424;2022-09-09T14:20:38;1.98;;;1.05;;
36851;SDS011;22784;52.476;13.424;2022-09-09T14:24:44;1.92;;;0.95;;
36851;SDS011;22784;52.476;13.424;2022-09-09T14:28:55;3.00;;;1.27;;
36851;SDS011;22784;52.476;13.424;2022-09-09T14:33:03;3.75;;;1.80;;
36851;SDS011;22784;52.476;13.424;2022-09-09T14:37:07;4.10;;;1.67;;
36851;SDS011;22784;52.476;13.424;2022-09-09T14:41:11;4.13;;;1.40;;
36851;SDS011;22784;52.476;13.424;2022-09-09T14:45:17;4.35;;;1.73;;
36851;SDS011;22784;52.476;13.424;2022-09-09T14:49:24;3.75;;;1.23;;
36851;SDS011;22784;52.476;13.424;2022-09-09T14:53:28;5.43;;;2.85;;
36851;SDS011;22784;52.476;13.424;2022-09-09T14:57:31;3.63;;;1.40;;
36851;SDS011;22784;52.476;13.424;2022-09-09T15:01:39;3.42;;;1.10;;
36851;SDS011;22784;52.476;13.424;2022-09-09T15:05:45;2.05;;;1.50;;
36851;SDS011;22784;52.476;13.424;2022-09-09T15:09:49;3.58;;;1.98;;
36851;SDS011;22784;52.476;13.424;2022-09-09T15:13:53;2.58;;;1.20;;
36851;SDS011;22784;52.476;13.424;2022-09-09T15:17:58;3.33;;;1.63;;
36851;SDS011;22784;52.476;13.424;2022-09-09T15:22:05;3.83;;;1.60;;
36851;SDS011;22784;52.476;13.424;2022-09-09T15:26:09;3.38;;;2.05;;
36851;SDS011;22784;52.476;13.424;2022-09-09T15:30:14;3.80;;;2.50;;
36851;SDS011;22784;52.476;13.424;2022-09-09T15:34:18;1.70;;;1.23;;
36851;SDS011;22784;52.476;13.424;2022-09-09T15:38:24;3.50;;;1.30;;
36851;SDS011;22784;52.476;13.424;2022-09-09T15:42:28;3.78;;;1.67;;
36851;SDS011;22784;52.476;13.424;2022-09-09T15:46:32;4.82;;;2.05;;
36851;SDS011;22784;52.476;13.424;2022-09-09T15:50:37;2.78;;;1.27;;
36851;SDS011;22784;52.476;13.424;2022-09-09T15:54:44;4.22;;;2.08;;
36851;SDS011;22784;52.476;13.424;2022-09-09T15:58:50;2.72;;;1.80;;
36851;SDS011;22784;52.476;13.424;2022-09-09T16:02:54;2.47;;;2.00;;
36851;SDS011;22784;52.476;13.424;2022-09-09T16:06:58;2.33;;;1.70;;
36851;SDS011;22784;52.476;13.424;2022-09-09T16:11:07;2.90;;;1.75;;
36851;SDS011;22784;52.476;13.424;2022-09-09T16:15:12;4.85;;;2.35;;
36851;SDS011;22784;52.476;13.424;2022-09-09T16:19:16;3.47;;;1.73;;
36851;SDS011;22784;52.476;13.424;2022-09-09T16:23:20;5.38;;;2.05;;
36851;SDS011;22784;52.476;13.424;2022-09-09T16:27:28;2.03;;;1.50;;
36851;SDS011;22784;52.476;13.424;2022-09-09T16:31:32;2.90;;;1.40;;
36851;SDS011;22784;52.476;13.424;2022-09-09T16:35:37;2.65;;;2.13;;
36851;SDS011;22784;52.476;13.424;2022-09-09T16:39:41;5.60;;;3.30;;
36851;SDS011;22784;52.476;13.424;2022-09-09T16:43:52;5.40;;;4.05;;
36851;SDS011;22784;52.476;13.424;2022-09-09T16:48:02;6.30;;;2.75;;
36851;SDS011;22784;52.476;13.424;2022-09-09T16:52:09;5.22;;;3.25;;
36851;SDS011;22784;52.476;13.424;2022-09-09T16:56:14;3.60;;;2.42;;
36851;SDS011;22784;52.476;13.424;2022-09-09T17:00:22;5.07;;;2.67;;
36851;SDS011;22784;52.476;13.424;2022-09-09T17:04:27;5.03;;;2.33;;
36851;SDS011;22784;52.476;13.424;2022-09-09T17:08:31;7.25;;;4.15;;
36851;SDS011;22784;52.476;13.424;2022-09-09T17:12:35;8.00;;;2.70;;
36851;SDS011;22784;52.476;13.424;2022-09-09T17:16:41;2.47;;;2.13;;
36851;SDS011;22784;52.476;13.424;2022-09-09T17:20:47;6.68;;;2.90;;
36851;SDS011;22784;52.476;13.424;2022-09-09T17:24:50;7.22;;;2.22;;
36851;SDS011;22784;52.476;13.424;2022-09-09T17:28:54;6.30;;;2.08;;
36851;SDS011;22784;52.476;13.424;2022-09-09T17:33:01;3.50;;;2.00;;
36851;SDS011;22784;52.476;13.424;2022-09-09T17:37:05;2.90;;;1.50;;
36851;SDS011;22784;52.476;13.424;2022-09-09T17:41:09;5.07;;;1.92;;
36851;SDS011;22784;52.476;13.424;2022-09-09T17:45:14;5.05;;;1.75;;
36851;SDS011;22784;52.476;13.424;2022-09-09T17:49:21;1.58;;;1.45;;
36851;SDS011;22784;52.476;13.424;2022-09-09T17:53:25;2.05;;;1.85;;
36851;SDS011;22784;52.476;13.424;2022-09-09T17:57:29;3.17;;;2.30;;
36851;SDS011;22784;52.476;13.424;2022-09-09T18:01:33;2.58;;;1.48;;
36851;SDS011;22784;52.476;13.424;2022-09-09T18:05:41;4.00;;;1.98;;
36851;SDS011;22784;52.476;13.424;2022-09-09T18:09:44;2.90;;;2.10;;
36851;SDS011;22784;52.476;13.424;2022-09-09T18:13:49;2.30;;;1.75;;
36851;SDS011;22784;52.476;13.424;2022-09-09T18:17:53;2.83;;;2.05;;
36851;SDS011;22784;52.476;13.424;2022-09-09T18:22:04;2.55;;;1.48;;
36851;SDS011;22784;52.476;13.424;2022-09-09T18:26:08;2.45;;;2.00;;
36851;SDS011;22784;52.476;13.424;2022-09-09T18:30:14;7.82;;;5.50;;
36851;SDS011;22784;52.476;13.424;2022-09-09T18:34:19;3.85;;;2.38;;
36851;SDS011;22784;52.476;13.424;2022-09-09T18:38:27;2.35;;;1.83;;
36851;SDS011;22784;52.476;13.424;2022-09-09T18:42:31;4.15;;;1.98;;
36851;SDS011;22784;52.476;13.424;2022-09-09T18:46:35;4.07;;;1.95;;
36851;SDS011;22784;52.476;13.424;2022-09-09T18:50:40;4.80;;;1.98;;
36851;SDS011;22784;52.476;13.424;2022-09-09T18:54:46;3.30;;;2.50;;
36851;SDS011;22784;52.476;13.424;2022-09-09T18:58:50;3.55;;;2.20;;
36851;SDS011;22784;52.476;13.424;2022-09-09T19:02:54;2.47;;;1.70;;
36851;SDS011;22784;52.476;13.424;2022-09-09T19:06:58;3.50;;;2.45;;
36851;SDS011;22784;52.476;13.424;2022-09-09T19:11:04;3.47;;;2.47;;
36851;SDS011;22784;52.476;13.424;2022-09-09T19:15:09;4.22;;;2.50;;
36851;SDS011;22784;52.476;13.424;2022-09-09T19:19:13;2.88;;;2.45;;
36851;SDS011;22784;52.476;13.424;2022-09-09T19:23:19;7.63;;;2.63;;
36851;SDS011;22784;52.476;13.424;2022-09-09T19:27:31;2.63;;;2.20;;
36851;SDS011;22784;52.476;13.424;2022-09-09T19:31:35;5.25;;;3.28;;
36851;SDS011;22784;52.476;13.424;2022-09-09T19:35:39;2.42;;;2.22;;
36851;SDS011;22784;52.476;13.424;2022-09-09T19:39:43;3.40;;;1.60;;
36851;SDS011;22784;52.476;13.424;2022-09-09T19:43:50;4.15;;;2.22;;
36851;SDS011;22784;52.476;13.424;2022-09-09T19:47:54;3.53;;;2.13;;
36851;SDS011;22784;52.476;13.424;2022-09-09T19:51:57;3.90;;;2.38;;
36851;SDS011;22784;52.476;13.424;2022-09-09T19:56:01;4.22;;;2.03;;
36851;SDS011;22784;52.476;13.424;2022-09-09T20:00:08;4.95;;;3.28;;
36851;SDS011;22784;52.476;13.424;2022-09-09T20:04:13;5.05;;;3.85;;
36851;SDS011;22784;52.476;13.424;2022-09-09T20:08:18;6.82;;;3.53;;
36851;SDS011;22784;52.476;13.424;2022-09-09T20:12:21;7.10;;;3.13;;
36851;SDS011;22784;52.476;13.424;2022-09-09T20:16:30;5.13;;;2.80;;
36851;SDS011;22784;52.476;13.424;2022-09-09T20:20:34;4.68;;;3.05;;
36851;SDS011;22784;52.476;13.424;2022-09-09T20:24:42;3.85;;;2.25;;
36851;SDS011;22784;52.476;13.424;2022-09-09T20:28:46;3.95;;;2.45;;
36851;SDS011;22784;52.476;13.424;2022-09-09T20:32:54;2.75;;;1.48;;
36851;SDS011;22784;52.476;13.424;2022-09-09T20:36:57;2.67;;;1.70;;
36851;SDS011;22784;52.476;13.424;2022-09-09T20:41:02;3.30;;;1.70;;
36851;SDS011;22784;52.476;13.424;2022-09-09T20:45:06;3.33;;;2.30;;
36851;SDS011;22784;52.476;13.424;2022-09-09T20:49:19;2.65;;;1.60;;
36851;SDS011;22784;52.476;13.424;2022-09-09T20:53:26;3.85;;;1.92;;
36851;SDS011;22784;52.476;13.424;2022-09-09T20:57:30;1.98;;;1.60;;
36851;SDS011;22784;52.476;13.424;2022-09-09T21:01:34;3.03;;;1.80;;
36851;SDS011;22784;52.476;13.424;2022-09-09T21:05:40;4.10;;;1.80;;
36851;SDS011;22784;52.476;13.424;2022-09-09T21:09:44;2.13;;;1.77;;
36851;SDS011;22784;52.476;13.424;2022-09-09T21:13:47;2.75;;;1.50;;
36851;SDS011;22784;52.476;13.424;2022-09-09T21:17:51;2.70;;;1.92;;
36851;SDS011;22784;52.476;13.424;2022-09-09T21:21:58;4.97;;;2.20;;
36851;SDS011;22784;52.476;13.424;2022-09-09T21:26:01;2.50;;;1.77;;
36851;SDS011;22784;52.476;13.424;2022-09-09T21:30:06;2.95;;;1.73;;
36851;SDS011;22784;52.476;13.424;2022-09-09T21:34:10;3.45;;;1.90;;
36851;SDS011;22784;52.476;13.424;2022-09-09T21:38:18;2.28;;;1.52;;
36851;SDS011;22784;52.476;13.424;2022-09-09T21:42:23;2.55;;;1.67;;
36851;SDS011;22784;52.476;13.424;2022-09-09T21:46:27;3.88;;;2.25;;
36851;SDS011;22784;52.476;13.424;2022-09-09T21:50:34;4.68;;;2.65;;
36851;SDS011;22784;52.476;13.424;2022-09-09T21:54:41;7.28;;;2.80;;
36851;SDS011;22784;52.476;13.424;2022-09-09T21:58:45;2.83;;;2.17;;
36851;SDS011;22784;52.476;13.424;2022-09-09T22:02:48;3.05;;;1.83;;
36851;SDS011;22784;52.476;13.424;2022-09-09T22:06:53;3.50;;;2.30;;
36851;SDS011;22784;52.476;13.424;2022-09-09T22:11:03;3.55;;;2.30;;
36851;SDS011;22784;52.476;13.424;2022-09-09T22:15:08;5.97;;;3.90;;
36851;SDS011;22784;52.476;13.424;2022-09-09T22:19:12;8.75;;;4.68;;
36851;SDS011;22784;52.476;13.424;2022-09-09T22:23:16;7.57;;;3.72;;
36851;SDS011;22784;52.476;13.424;2022-09-09T22:27:23;5.53;;;3.47;;
36851;SDS011;22784;52.476;13.424;2022-09-09T22:31:27;6.22;;;3.17;;
36851;SDS011;22784;52.476;13.424;2022-09-09T22:35:30;2.90;;;2.20;;
36851;SDS011;22784;52.476;13.424;2022-09-09T22:39:34;2.75;;;2.20;;
36851;SDS011;22784;52.476;13.424;2022-09-09T22:43:40;4.43;;;2.10;;
36851;SDS011;22784;52.476;13.424;2022-09-09T22:47:44;3.33;;;2.13;;
36851;SDS011;22784;52.476;13.424;2022-09-09T22:51:48;3.42;;;2.03;;
36851;SDS011;22784;52.476;13.424;2022-09-09T22:55:55;3.10;;;2.03;;
36851;SDS011;22784;52.476;13.424;2022-09-09T23:00:03;3.85;;;1.60;;
36851;SDS011;22784;52.476;13.424;2022-09-09T23:04:09;2.20;;;1.73;;
36851;SDS011;22784;52.476;13.424;2022-09-09T23:08:13;2.50;;;1.77;;
36851;SDS011;22784;52.476;13.424;2022-09-09T23:12:18;3.40;;;2.13;;
36851;SDS011;22784;52.476;13.424;2022-09-09T23:16:25;4.38;;;2.40;;
36851;SDS011;22784;52.476;13.424;2022-09-09T23:20:30;2.80;;;1.80;;
36851;SDS011;22784;52.476;13.424;2022-09-09T23:24:34;3.47;;;1.83;;
36851;SDS011;22784;52.476;13.424;2022-09-09T23:28:38;4.63;;;2.13;;
36851;SDS011;22784;52.476;13.424;2022-09-09T23:32:46;2.35;;;1.88;;
36851;SDS011;22784;52.476;13.424;2022-09-09T23:36:51;6.05;;;2.17;;
36851;SDS011;22784;52.476;13.424;2022-09-09T23:40:55;3.28;;;2.47;;
36851;SDS011;22784;52.476;13.424;2022-09-09T23:45:00;3.50;;;2.20;;
36851;SDS011;22784;52.476;13.424;2022-09-09T23:49:09;4.88;;;2.28;;
36851;SDS011;22784;52.476;13.424;2022-09-09T23:53:13;4.32;;;2.47;;
36851;SDS011;22784;52.476;13.424;2022-09-09T23:57:17;2.22;;;2.03;;
